createdAt,value
2022-12-29T00:01:03.336Z,12.20
2022-12-29T00:03:30.851Z,12.23
2022-12-29T00:05:59.507Z,12.80
2022-12-29T00:08:41.999Z,12.05
2022-12-29T00:11:11.894Z,11.98
2022-12-29T00:13:58.460Z,12.15
2022-12-29T00:16:27.784Z,12.70
2022-12-29T00:18:55.255Z,13.23
2022-12-29T00:21:42.626Z,13.55
2022-12-29T00:24:27.677Z,12.80
2022-12-29T00:27:27.387Z,12.95
2022-12-29T00:30:13.283Z,13.38
2022-12-29T00:32:59.891Z,12.13
2022-12-29T00:35:34.638Z,12.45
2022-12-29T00:38:24.921Z,12.65
2022-12-29T00:41:10.926Z,12.48
2022-12-29T00:43:56.930Z,13.60
2022-12-29T00:46:24.403Z,12.35
2022-12-29T00:49:10.507Z,11.82
2022-12-29T00:51:38.099Z,12.63
2022-12-29T00:54:05.486Z,10.98
2022-12-29T00:56:32.896Z,11.98
2022-12-29T00:59:07.022Z,10.93
2022-12-29T01:01:37.699Z,10.73
2022-12-29T01:04:05.956Z,10.90
2022-12-29T01:06:35.178Z,10.32
2022-12-29T01:09:21.651Z,10.45
2022-12-29T01:11:49.053Z,9.80
2022-12-29T01:14:17.330Z,9.77
2022-12-29T01:16:46.219Z,10.10
2022-12-29T01:19:15.108Z,10.00
2022-12-29T01:21:42.592Z,9.50
2022-12-29T01:24:10.338Z,9.68
2022-12-29T01:26:37.799Z,9.73
2022-12-29T01:29:05.153Z,9.75
2022-12-29T01:31:32.636Z,9.77
2022-12-29T01:34:00.050Z,9.80
2022-12-29T01:36:27.500Z,10.60
2022-12-29T01:38:54.861Z,10.18
2022-12-29T01:41:22.454Z,10.73
2022-12-29T01:43:57.262Z,9.60
2022-12-29T01:46:32.344Z,10.98
2022-12-29T01:49:23.041Z,10.35
2022-12-29T01:51:56.733Z,10.68
2022-12-29T01:54:29.435Z,10.02
2022-12-29T01:57:00.408Z,10.93
2022-12-29T01:59:33.357Z,10.63
2022-12-29T02:02:01.691Z,10.85
2022-12-29T02:04:32.531Z,10.70
2022-12-29T02:07:09.605Z,11.77
2022-12-29T02:09:37.185Z,11.75
2022-12-29T02:12:04.851Z,10.75
2022-12-29T02:14:32.631Z,11.10
2022-12-29T02:17:18.648Z,11.18
2022-12-29T02:20:14.315Z,11.40
2022-12-29T02:23:03.340Z,11.40
2022-12-29T02:25:52.332Z,11.25
2022-12-29T02:28:55.810Z,12.07
2022-12-29T02:31:39.496Z,11.68
2022-12-29T02:34:25.273Z,11.70
2022-12-29T02:37:28.149Z,13.50
2022-12-29T02:40:05.684Z,13.48
2022-12-29T02:42:42.318Z,13.75
2022-12-29T02:45:27.464Z,13.63
2022-12-29T02:48:38.483Z,13.43
2022-12-29T02:51:18.859Z,13.90
2022-12-29T02:54:23.756Z,14.93
2022-12-29T02:56:51.127Z,14.75
2022-12-29T02:59:19.079Z,13.25
2022-12-29T03:02:17.916Z,14.75
2022-12-29T03:05:24.420Z,14.38
2022-12-29T03:07:57.660Z,15.13
2022-12-29T03:10:49.513Z,14.30
2022-12-29T03:13:58.348Z,13.88
2022-12-29T03:16:37.168Z,14.05
2022-12-29T03:19:23.584Z,13.40
2022-12-29T03:22:15.177Z,13.98
2022-12-29T03:24:48.936Z,13.80
2022-12-29T03:27:33.846Z,14.85
2022-12-29T03:30:04.915Z,13.98
2022-12-29T03:32:37.383Z,14.40
2022-12-29T03:35:08.418Z,14.32
2022-12-29T03:37:41.891Z,13.23
2022-12-29T03:40:10.484Z,13.65
2022-12-29T03:42:40.538Z,13.48
2022-12-29T03:45:10.334Z,15.20
2022-12-29T03:47:38.430Z,15.15
2022-12-29T03:50:07.244Z,15.52
2022-12-29T03:52:38.063Z,14.73
2022-12-29T03:55:06.069Z,14.98
2022-12-29T03:57:33.436Z,15.55
2022-12-29T04:00:06.746Z,14.80
2022-12-29T04:02:43.409Z,14.93
2022-12-29T04:05:15.854Z,14.32
2022-12-29T04:07:43.367Z,15.60
2022-12-29T04:10:10.920Z,15.90
2022-12-29T04:12:38.987Z,17.27
2022-12-29T04:15:07.303Z,18.05
2022-12-29T04:17:34.875Z,17.13
2022-12-29T04:20:22.820Z,17.38
2022-12-29T04:22:57.971Z,15.63
2022-12-29T04:25:25.659Z,17.65
2022-12-29T04:27:53.682Z,16.35
2022-12-29T04:30:39.446Z,15.23
2022-12-29T04:33:14.543Z,15.98
2022-12-29T04:35:44.179Z,15.02
2022-12-29T04:38:12.773Z,13.52
2022-12-29T04:40:42.336Z,14.07
2022-12-29T04:43:11.988Z,13.25
2022-12-29T04:46:10.455Z,13.70
2022-12-29T04:49:09.421Z,13.85
2022-12-29T04:51:55.567Z,13.10
2022-12-29T04:54:24.054Z,13.48
2022-12-29T04:56:59.699Z,14.85
2022-12-29T04:59:27.066Z,14.48
2022-12-29T05:01:58.106Z,14.85
2022-12-29T05:04:25.767Z,13.98
2022-12-29T05:06:53.860Z,14.20
2022-12-29T05:09:21.293Z,14.02
2022-12-29T05:11:48.737Z,13.70
2022-12-29T05:14:16.148Z,12.77
2022-12-29T05:16:46.349Z,12.15
2022-12-29T05:19:14.027Z,11.02
2022-12-29T05:21:41.911Z,11.43
2022-12-29T05:24:09.414Z,9.68
2022-12-29T05:26:36.892Z,8.93
2022-12-29T05:29:22.890Z,8.15
2022-12-29T05:31:50.491Z,8.90
2022-12-29T05:34:17.902Z,8.38
2022-12-29T05:36:45.934Z,7.80
2022-12-29T05:39:14.952Z,7.97
2022-12-29T05:41:44.597Z,8.35
2022-12-29T05:44:30.534Z,6.68
2022-12-29T05:47:23.651Z,7.10
2022-12-29T05:50:04.388Z,7.03
2022-12-29T05:52:52.194Z,7.05
2022-12-29T05:55:20.215Z,6.13
2022-12-29T05:57:49.509Z,7.30
2022-12-29T06:00:18.743Z,6.90
2022-12-29T06:02:48.003Z,7.25
2022-12-29T06:05:17.396Z,6.28
2022-12-29T06:07:46.276Z,7.13
2022-12-29T06:10:16.000Z,7.70
2022-12-29T06:12:48.046Z,7.40
2022-12-29T06:15:16.114Z,7.60
2022-12-29T06:17:45.744Z,7.38
2022-12-29T06:20:13.302Z,7.90
2022-12-29T06:22:40.729Z,7.20
2022-12-29T06:25:09.073Z,7.57
2022-12-29T06:27:36.947Z,7.00
2022-12-29T06:30:04.864Z,7.93
2022-12-29T06:32:32.324Z,7.90
2022-12-29T06:35:07.048Z,6.85
2022-12-29T06:37:38.433Z,7.93
2022-12-29T06:40:06.534Z,7.72
2022-12-29T06:42:49.506Z,7.82
2022-12-29T06:45:33.752Z,7.97
2022-12-29T06:48:01.302Z,7.93
2022-12-29T06:50:28.702Z,8.38
2022-12-29T06:52:56.049Z,7.50
2022-12-29T06:55:23.425Z,8.55
2022-12-29T06:57:50.914Z,7.70
2022-12-29T07:00:22.734Z,8.98
2022-12-29T07:02:51.203Z,8.90
2022-12-29T07:05:19.025Z,8.40
2022-12-29T07:07:46.402Z,8.13
2022-12-29T07:10:14.013Z,8.75
2022-12-29T07:12:41.342Z,8.80
2022-12-29T07:15:09.034Z,8.35
2022-12-29T07:17:36.401Z,9.77
2022-12-29T07:20:04.279Z,8.95
2022-12-29T07:22:31.687Z,9.30
2022-12-29T07:24:59.056Z,9.13
2022-12-29T07:27:26.406Z,8.60
2022-12-29T07:29:53.725Z,9.07
2022-12-29T07:32:21.131Z,8.55
2022-12-29T07:34:48.562Z,8.43
2022-12-29T07:37:16.745Z,7.53
2022-12-29T07:39:45.009Z,7.68
2022-12-29T07:42:12.389Z,8.25
2022-12-29T07:44:43.702Z,8.73
2022-12-29T07:47:27.782Z,8.50
2022-12-29T07:49:55.123Z,8.35
2022-12-29T07:52:22.592Z,8.27
2022-12-29T07:54:50.214Z,8.50
2022-12-29T07:57:17.699Z,8.60
2022-12-29T07:59:45.032Z,9.45
2022-12-29T08:02:12.830Z,9.55
2022-12-29T08:04:40.296Z,9.55
2022-12-29T08:07:07.725Z,9.18
2022-12-29T08:09:35.604Z,10.82
2022-12-29T08:12:03.060Z,10.85
2022-12-29T08:14:30.356Z,11.43
2022-12-29T08:16:57.829Z,11.57
2022-12-29T08:19:25.257Z,10.65
2022-12-29T08:21:53.927Z,10.85
2022-12-29T08:24:21.388Z,10.88
2022-12-29T08:26:48.857Z,10.55
2022-12-29T08:29:16.183Z,10.90
2022-12-29T08:31:44.714Z,10.52
2022-12-29T08:34:12.151Z,10.82
2022-12-29T08:36:39.684Z,10.57
2022-12-29T08:39:07.173Z,10.73
2022-12-29T08:41:34.617Z,10.82
2022-12-29T08:44:02.015Z,11.32
2022-12-29T08:46:48.093Z,10.88
2022-12-29T08:49:15.583Z,10.18
2022-12-29T08:51:42.970Z,10.80
2022-12-29T08:54:10.462Z,10.55
2022-12-29T08:56:37.907Z,10.57
2022-12-29T08:59:05.731Z,10.73
2022-12-29T09:01:34.632Z,10.52
2022-12-29T09:04:18.347Z,11.05
2022-12-29T09:06:46.518Z,11.43
2022-12-29T09:09:14.265Z,10.98
2022-12-29T09:11:42.757Z,11.75
2022-12-29T09:14:10.174Z,12.02
2022-12-29T09:16:37.970Z,11.45
2022-12-29T09:19:05.478Z,11.55
2022-12-29T09:21:33.204Z,11.90
2022-12-29T09:24:00.625Z,12.05
2022-12-29T09:26:28.097Z,11.80
2022-12-29T09:28:55.527Z,11.35
2022-12-29T09:31:23.241Z,11.65
2022-12-29T09:33:50.700Z,12.30
2022-12-29T09:36:18.123Z,11.90
2022-12-29T09:38:45.440Z,12.30
2022-12-29T09:41:25.718Z,12.63
2022-12-29T09:44:18.541Z,13.02
2022-12-29T09:46:50.608Z,13.18
2022-12-29T09:49:29.943Z,13.68
2022-12-29T09:52:30.432Z,13.30
2022-12-29T09:55:18.067Z,12.60
2022-12-29T09:57:57.695Z,12.93
2022-12-29T10:01:01.393Z,13.95
2022-12-29T10:03:43.164Z,13.23
2022-12-29T10:06:26.881Z,12.13
2022-12-29T10:09:14.430Z,12.85
2022-12-29T10:11:50.912Z,12.60
2022-12-29T10:14:59.766Z,13.93
2022-12-29T10:17:44.180Z,13.32
2022-12-29T10:20:43.733Z,14.35
2022-12-29T10:23:29.218Z,15.15
2022-12-29T10:25:59.316Z,16.75
2022-12-29T10:28:51.686Z,19.92
2022-12-29T10:34:33.406Z,20.10
2022-12-29T10:37:33.456Z,20.73
2022-12-29T10:40:13.462Z,22.05
2022-12-29T10:42:47.837Z,21.58
2022-12-29T10:45:17.752Z,20.85
2022-12-29T10:48:18.708Z,21.67
2022-12-29T10:50:46.384Z,21.67
2022-12-29T10:53:23.890Z,22.90
2022-12-29T10:55:51.586Z,21.67
2022-12-29T10:58:20.056Z,20.98
2022-12-29T11:00:54.633Z,22.30
2022-12-29T11:03:43.442Z,23.13
2022-12-29T11:06:17.569Z,23.00
2022-12-29T11:09:11.008Z,24.80
2022-12-29T11:11:38.943Z,23.42
2022-12-29T11:14:18.723Z,22.20
2022-12-29T11:16:58.138Z,22.35
2022-12-29T11:19:28.428Z,23.20
2022-12-29T11:21:56.101Z,21.75
2022-12-29T11:24:27.189Z,21.90
2022-12-29T11:27:09.308Z,22.53
2022-12-29T11:32:29.414Z,21.88
2022-12-29T11:35:01.972Z,22.63
2022-12-29T11:37:39.970Z,23.60
2022-12-29T11:40:22.111Z,22.60
2022-12-29T11:42:55.958Z,22.98
2022-12-29T11:45:29.670Z,39.75
2022-12-29T11:48:06.714Z,23.95
2022-12-29T11:50:36.919Z,33.72
2022-12-29T11:53:09.071Z,20.92
2022-12-29T11:55:36.566Z,17.98
2022-12-29T11:58:05.925Z,20.70
2022-12-29T12:00:40.714Z,20.02
2022-12-29T12:03:10.871Z,19.38
2022-12-29T12:05:51.361Z,18.92
2022-12-29T12:08:35.408Z,18.77
2022-12-29T12:11:26.070Z,18.40
2022-12-29T12:14:16.703Z,20.42
2022-12-29T12:17:13.746Z,18.65
2022-12-29T12:20:08.946Z,19.40
2022-12-29T12:22:59.755Z,19.70
2022-12-29T12:25:35.379Z,20.55
2022-12-29T12:28:21.572Z,21.20
2022-12-29T12:30:54.563Z,21.90
2022-12-29T12:33:34.449Z,21.98
2022-12-29T12:36:05.037Z,20.85
2022-12-29T12:39:00.993Z,22.92
2022-12-29T12:41:36.696Z,22.08
2022-12-29T12:44:34.963Z,21.50
2022-12-29T12:47:11.132Z,20.55
2022-12-29T12:49:41.484Z,21.73
2022-12-29T12:52:47.087Z,20.55
2022-12-29T12:55:36.256Z,21.42
2022-12-29T12:58:37.217Z,24.23
2022-12-29T13:01:34.246Z,23.00
2022-12-29T13:04:37.793Z,24.52
2022-12-29T13:07:22.472Z,25.35
2022-12-29T13:09:58.746Z,25.40
2022-12-29T13:12:42.411Z,25.42
2022-12-29T13:15:16.934Z,25.10
2022-12-29T13:18:10.632Z,25.17
2022-12-29T13:20:47.289Z,25.83
2022-12-29T13:23:36.242Z,24.42
2022-12-29T13:26:14.748Z,23.85
2022-12-29T13:29:11.379Z,22.52
2022-12-29T13:32:02.894Z,23.50
2022-12-29T13:35:05.496Z,22.97
2022-12-29T13:37:37.205Z,24.45
2022-12-29T13:40:22.280Z,23.25
2022-12-29T13:42:50.779Z,23.95
2022-12-29T13:45:22.473Z,23.27
2022-12-29T13:48:02.379Z,23.70
2022-12-29T13:50:35.334Z,23.63
2022-12-29T13:53:28.066Z,22.15
2022-12-29T13:56:05.951Z,21.40
2022-12-29T13:58:33.445Z,22.60
2022-12-29T14:01:19.287Z,22.02
2022-12-29T14:03:58.462Z,21.52
2022-12-29T14:06:35.708Z,22.35
2022-12-29T14:09:07.357Z,21.80
2022-12-29T14:11:37.342Z,22.70
2022-12-29T14:14:15.323Z,22.80
2022-12-29T14:16:44.049Z,23.85
2022-12-29T14:19:19.762Z,22.63
2022-12-29T14:22:32.731Z,22.67
2022-12-29T14:25:01.716Z,23.33
2022-12-29T14:27:28.982Z,23.77
2022-12-29T14:29:56.452Z,23.05
2022-12-29T14:32:26.575Z,22.88
2022-12-29T14:34:57.658Z,25.08
2022-12-29T14:37:40.012Z,26.07
2022-12-29T14:40:20.256Z,24.50
2022-12-29T14:42:48.936Z,23.60
2022-12-29T14:45:19.769Z,25.33
2022-12-29T14:47:49.979Z,25.02
2022-12-29T14:50:22.236Z,27.08
2022-12-29T14:52:49.606Z,25.13
2022-12-29T14:55:16.864Z,26.70
2022-12-29T14:57:49.608Z,25.27
2022-12-29T15:00:28.355Z,26.52
2022-12-29T15:03:06.536Z,28.08
2022-12-29T15:05:48.040Z,27.35
2022-12-29T15:08:20.805Z,26.48
2022-12-29T15:10:55.535Z,25.75
2022-12-29T15:13:26.337Z,25.75
2022-12-29T15:15:54.011Z,25.13
2022-12-29T15:18:24.893Z,25.48
2022-12-29T15:21:05.590Z,25.25
2022-12-29T15:23:36.112Z,25.15
2022-12-29T15:26:08.861Z,26.20
2022-12-29T15:28:46.100Z,26.10
2022-12-29T15:31:30.592Z,26.13
2022-12-29T15:34:13.374Z,25.10
2022-12-29T15:36:42.363Z,25.20
2022-12-29T15:39:30.082Z,26.08
2022-12-29T15:42:37.570Z,26.20
2022-12-29T15:45:11.193Z,24.90
2022-12-29T15:47:40.969Z,25.23
2022-12-29T15:50:30.110Z,26.63
2022-12-29T15:52:59.255Z,26.75
2022-12-29T15:55:35.888Z,25.08
2022-12-29T15:58:06.504Z,26.10
2022-12-29T16:00:38.344Z,24.92
2022-12-29T16:05:39.952Z,26.35
2022-12-29T16:08:38.853Z,27.40
2022-12-29T16:11:24.873Z,26.88
2022-12-29T16:13:54.467Z,26.35
2022-12-29T16:16:43.166Z,25.50
2022-12-29T16:19:20.151Z,26.20
2022-12-29T16:21:48.210Z,25.98
2022-12-29T16:24:21.938Z,25.80
2022-12-29T16:27:30.410Z,26.63
2022-12-29T16:29:58.000Z,27.52
2022-12-29T16:32:29.845Z,27.27
2022-12-29T16:35:40.627Z,28.70
2022-12-29T16:38:19.549Z,26.83
2022-12-29T16:40:57.911Z,28.63
2022-12-29T16:43:27.765Z,27.75
2022-12-29T16:46:01.457Z,28.02
2022-12-29T16:48:32.724Z,29.65
2022-12-29T16:51:31.132Z,30.45
2022-12-29T16:54:00.175Z,30.30
2022-12-29T16:56:31.498Z,29.95
2022-12-29T16:59:05.708Z,30.10
2022-12-29T17:01:37.252Z,28.17
2022-12-29T17:04:08.808Z,28.60
2022-12-29T17:06:36.189Z,28.83
2022-12-29T17:09:03.966Z,29.25
2022-12-29T17:11:59.223Z,26.10
2022-12-29T17:14:32.841Z,25.80
2022-12-29T17:17:03.639Z,25.52
2022-12-29T17:19:36.717Z,26.10
2022-12-29T17:22:10.171Z,24.88
2022-12-29T17:24:38.357Z,23.83
2022-12-29T17:27:06.105Z,24.30
2022-12-29T17:29:40.994Z,23.90
2022-12-29T17:32:13.588Z,24.00
2022-12-29T17:34:41.824Z,24.25
2022-12-29T17:37:24.310Z,24.83
2022-12-29T17:39:51.688Z,23.27
2022-12-29T17:42:20.008Z,25.42
2022-12-29T17:44:48.015Z,23.15
2022-12-29T17:47:16.000Z,25.45
2022-12-29T17:49:46.757Z,24.52
2022-12-29T17:52:16.012Z,24.83
2022-12-29T17:54:50.972Z,25.80
2022-12-29T17:57:21.561Z,26.65
2022-12-29T17:59:49.253Z,26.63
2022-12-29T18:02:31.600Z,26.83
2022-12-29T18:04:59.769Z,25.30
2022-12-29T18:07:35.405Z,26.35
2022-12-29T18:10:04.054Z,26.58
2022-12-29T18:12:45.954Z,26.77
2022-12-29T18:15:28.256Z,27.70
2022-12-29T18:18:16.547Z,27.02
2022-12-29T18:20:44.848Z,27.73
2022-12-29T18:23:24.625Z,28.17
2022-12-29T18:25:54.085Z,25.35
2022-12-29T18:28:21.491Z,27.00
2022-12-29T18:30:49.167Z,26.55
2022-12-29T18:33:22.562Z,26.25
2022-12-29T18:36:03.137Z,26.15
2022-12-29T18:38:31.472Z,27.52
2022-12-29T18:40:59.663Z,28.50
2022-12-29T18:43:27.073Z,27.05
2022-12-29T18:45:54.715Z,28.30
2022-12-29T18:48:22.564Z,27.63
2022-12-29T18:50:51.740Z,27.27
2022-12-29T18:53:22.314Z,26.88
2022-12-29T18:55:51.155Z,27.52
2022-12-29T18:58:18.747Z,26.85
2022-12-29T19:00:46.941Z,26.95
2022-12-29T19:03:16.982Z,27.13
2022-12-29T19:05:46.578Z,26.73
2022-12-29T19:08:14.151Z,28.35
2022-12-29T19:10:43.342Z,28.65
2022-12-29T19:13:19.745Z,25.75
2022-12-29T19:15:48.499Z,26.95
2022-12-29T19:21:08.885Z,27.92
2022-12-29T19:23:36.251Z,29.02
2022-12-29T19:26:03.711Z,28.08
2022-12-29T19:28:31.106Z,27.80
2022-12-29T19:31:00.220Z,27.70
2022-12-29T19:33:28.342Z,28.45
2022-12-29T19:36:01.428Z,28.13
2022-12-29T19:38:29.113Z,27.38
2022-12-29T19:40:56.584Z,28.08
2022-12-29T19:43:24.022Z,27.42
2022-12-29T19:45:52.434Z,28.77
2022-12-29T19:48:20.855Z,26.95
2022-12-29T19:50:48.638Z,28.65
2022-12-29T19:53:16.238Z,28.40
2022-12-29T19:55:47.753Z,30.23
2022-12-29T19:58:15.259Z,29.08
2022-12-29T20:00:43.576Z,29.95
2022-12-29T20:03:11.609Z,29.83
2022-12-29T20:05:39.632Z,28.70
2022-12-29T20:08:07.261Z,29.50
2022-12-29T20:10:34.735Z,30.85
2022-12-29T20:13:04.493Z,30.65
2022-12-29T20:15:32.342Z,30.67
2022-12-29T20:18:13.053Z,29.55
2022-12-29T20:23:09.311Z,29.88
2022-12-29T20:25:45.581Z,30.40
2022-12-29T20:28:15.133Z,30.15
2022-12-29T20:30:43.308Z,30.35
2022-12-29T20:33:10.718Z,29.92
2022-12-29T20:35:38.141Z,29.45
2022-12-29T20:38:05.548Z,30.65
2022-12-29T20:40:32.961Z,30.50
2022-12-29T20:43:00.383Z,30.42
2022-12-29T20:45:27.822Z,29.58
2022-12-29T20:47:55.280Z,30.20
2022-12-29T20:50:22.589Z,28.90
2022-12-29T20:52:50.018Z,29.23
2022-12-29T20:55:17.559Z,29.60
2022-12-29T20:58:22.031Z,27.70
2022-12-29T21:00:33.048Z,29.05
2022-12-29T21:03:01.045Z,28.30
2022-12-29T21:05:29.536Z,28.38
2022-12-29T21:07:59.518Z,26.88
2022-12-29T21:10:27.041Z,28.13
2022-12-29T21:12:54.520Z,28.33
2022-12-29T21:15:22.559Z,28.05
2022-12-29T21:17:49.972Z,26.05
2022-12-29T21:20:20.617Z,26.10
2022-12-29T21:22:48.699Z,27.83
2022-12-29T21:25:16.174Z,25.95
2022-12-29T21:27:46.400Z,27.65
2022-12-29T21:30:14.638Z,27.42
2022-12-29T21:32:42.054Z,27.52
2022-12-29T21:35:09.912Z,28.08
2022-12-29T21:37:37.317Z,28.45
2022-12-29T21:40:05.717Z,27.77
2022-12-29T21:42:33.995Z,28.15
2022-12-29T21:45:20.998Z,27.02
2022-12-29T21:48:07.250Z,27.52
2022-12-29T21:50:59.335Z,27.45
2022-12-29T21:53:40.490Z,27.25
2022-12-29T21:56:13.982Z,27.13
2022-12-29T21:59:02.415Z,26.40
2022-12-29T22:01:49.936Z,26.52
2022-12-29T22:04:39.062Z,26.60
2022-12-29T22:07:27.381Z,27.75
2022-12-29T22:10:13.743Z,28.80
2022-12-29T22:13:00.036Z,28.48
2022-12-29T22:15:30.712Z,26.30
2022-12-29T22:17:58.651Z,27.60
2022-12-29T22:20:29.472Z,27.83
2022-12-29T22:22:56.929Z,27.08
2022-12-29T22:25:24.733Z,27.83
2022-12-29T22:27:58.547Z,27.85
2022-12-29T22:30:28.332Z,25.98
2022-12-29T22:32:58.072Z,26.70
2022-12-29T22:35:25.470Z,26.45
2022-12-29T22:37:53.481Z,25.42
2022-12-29T22:40:20.893Z,24.75
2022-12-29T22:42:48.444Z,24.33
2022-12-29T22:45:15.999Z,24.83
2022-12-29T22:47:43.357Z,25.52
2022-12-29T22:50:10.796Z,25.02
2022-12-29T22:52:38.176Z,22.80
2022-12-29T22:55:07.194Z,21.25
2022-12-29T22:57:35.790Z,21.27
2022-12-29T23:00:06.666Z,20.23
2022-12-29T23:02:34.904Z,19.33
2022-12-29T23:05:04.777Z,20.60
2022-12-29T23:07:34.942Z,20.65
2022-12-29T23:10:04.791Z,20.35
2022-12-29T23:12:32.797Z,19.48
2022-12-29T23:15:00.160Z,19.98
2022-12-29T23:17:27.790Z,21.33
2022-12-29T23:19:55.129Z,20.73
2022-12-29T23:22:23.129Z,20.95
2022-12-29T23:24:50.812Z,20.70
2022-12-29T23:27:18.196Z,20.70
2022-12-29T23:29:45.600Z,20.85
2022-12-29T23:32:13.019Z,21.02
2022-12-29T23:34:40.428Z,21.92
2022-12-29T23:37:07.842Z,20.23
2022-12-29T23:39:35.213Z,22.55
2022-12-29T23:42:02.571Z,19.98
2022-12-29T23:44:30.041Z,20.50
2022-12-29T23:46:57.483Z,20.33
2022-12-29T23:49:24.973Z,20.60
2022-12-29T23:51:52.348Z,19.67
2022-12-29T23:54:19.768Z,19.77
2022-12-29T23:56:47.187Z,19.00
2022-12-29T23:59:14.523Z,20.17
